createdAt,value
2023-05-16T00:02:41.501Z,82.76
2023-05-16T00:05:44.215Z,83.33
2023-05-16T00:08:46.573Z,80.83
2023-05-16T00:11:51.197Z,78.08
2023-05-16T00:14:53.540Z,76.76
2023-05-16T00:17:59.801Z,77.17
2023-05-16T00:21:02.239Z,77.31
2023-05-16T00:24:09.292Z,78.09
2023-05-16T00:27:12.964Z,76.54
2023-05-16T00:30:18.321Z,77.33
2023-05-16T00:33:23.256Z,76.57
2023-05-16T00:36:28.710Z,76.09
2023-05-16T00:39:33.459Z,75.49
2023-05-16T00:42:38.212Z,75.09
2023-05-16T00:45:40.611Z,75.57
2023-05-16T00:48:48.058Z,75.94
2023-05-16T00:51:53.180Z,75.94
2023-05-16T00:55:01.527Z,75.88
2023-05-16T00:58:08.031Z,76.44
2023-05-16T01:01:10.529Z,76.92
2023-05-16T01:04:16.125Z,76.75
2023-05-16T01:07:20.867Z,76.66
2023-05-16T01:10:23.579Z,77.89
2023-05-16T01:13:32.303Z,78.05
2023-05-16T01:16:43.123Z,77.89
2023-05-16T01:20:21.045Z,78.08
2023-05-16T01:23:26.736Z,77.56
2023-05-16T01:26:30.160Z,77.65
2023-05-16T01:29:32.533Z,77.67
2023-05-16T01:32:35.605Z,77.62
2023-05-16T01:36:06.584Z,77.99
2023-05-16T01:39:17.205Z,78.45
2023-05-16T01:42:30.247Z,79.20
2023-05-16T01:45:34.748Z,79.31
2023-05-16T01:48:53.852Z,79.17
2023-05-16T01:52:01.661Z,79.90
2023-05-16T01:55:04.940Z,80.31
2023-05-16T01:58:10.227Z,81.00
2023-05-16T02:01:13.575Z,81.25
2023-05-16T02:04:18.463Z,80.64
2023-05-16T02:07:21.409Z,81.06
2023-05-16T02:10:24.351Z,80.45
2023-05-16T02:13:28.894Z,80.78
2023-05-16T02:16:34.023Z,80.88
2023-05-16T02:19:36.357Z,80.67
2023-05-16T02:22:42.654Z,81.25
2023-05-16T02:25:45.113Z,81.07
2023-05-16T02:28:52.796Z,80.75
2023-05-16T02:31:57.403Z,80.72
2023-05-16T02:34:59.905Z,81.60
2023-05-16T02:38:02.211Z,81.72
2023-05-16T02:41:04.551Z,82.03
2023-05-16T02:44:11.594Z,82.04
2023-05-16T02:47:17.008Z,81.73
2023-05-16T02:50:21.968Z,81.41
2023-05-16T02:53:26.784Z,81.62
2023-05-16T02:56:31.399Z,81.54
2023-05-16T02:59:33.686Z,81.29
2023-05-16T03:02:36.055Z,81.18
2023-05-16T03:05:38.308Z,80.74
2023-05-16T03:08:41.912Z,80.59
2023-05-16T03:11:46.603Z,81.41
2023-05-16T03:14:48.877Z,81.56
2023-05-16T03:17:53.609Z,81.35
2023-05-16T03:20:56.292Z,81.31
2023-05-16T03:23:59.556Z,80.86
2023-05-16T03:27:05.067Z,81.79
2023-05-16T03:30:08.781Z,81.52
2023-05-16T03:33:13.685Z,81.24
2023-05-16T03:36:18.912Z,80.85
2023-05-16T03:39:21.422Z,81.34
2023-05-16T03:42:28.544Z,80.84
2023-05-16T03:45:34.213Z,81.06
2023-05-16T03:48:36.497Z,80.12
2023-05-16T03:51:38.827Z,80.82
2023-05-16T03:54:43.418Z,80.75
2023-05-16T03:57:46.471Z,80.57
2023-05-16T04:00:48.833Z,80.63
2023-05-16T04:03:53.924Z,80.15
2023-05-16T04:06:58.527Z,80.20
2023-05-16T04:10:01.166Z,80.42
2023-05-16T04:13:03.657Z,79.82
2023-05-16T04:16:06.478Z,79.73
2023-05-16T04:19:11.069Z,79.67
2023-05-16T04:22:20.588Z,79.39
2023-05-16T04:25:22.822Z,78.51
2023-05-16T04:28:25.113Z,79.14
2023-05-16T04:31:30.119Z,79.88
2023-05-16T04:34:33.996Z,78.81
2023-05-16T04:37:38.534Z,79.74
2023-05-16T04:40:46.187Z,79.06
2023-05-16T04:43:53.729Z,78.99
2023-05-16T04:46:58.296Z,78.52
2023-05-16T04:50:06.280Z,78.21
2023-05-16T04:53:11.061Z,78.89
2023-05-16T04:56:13.596Z,78.45
2023-05-16T04:59:18.364Z,78.14
2023-05-16T05:02:20.704Z,78.99
2023-05-16T05:05:23.185Z,79.19
2023-05-16T05:08:28.248Z,79.09
2023-05-16T05:11:30.519Z,79.23
2023-05-16T05:14:37.529Z,78.64
2023-05-16T05:17:41.171Z,78.15
2023-05-16T05:20:47.482Z,78.67
2023-05-16T05:23:49.885Z,79.22
2023-05-16T05:26:54.723Z,78.23
2023-05-16T05:30:01.876Z,78.14
2023-05-16T05:33:06.639Z,78.33
2023-05-16T05:36:10.526Z,78.96
2023-05-16T05:39:12.856Z,78.79
2023-05-16T05:42:17.468Z,78.73
2023-05-16T05:45:27.402Z,78.00
2023-05-16T05:48:30.080Z,78.15
2023-05-16T05:51:34.770Z,78.14
2023-05-16T05:54:42.280Z,78.24
2023-05-16T05:57:46.831Z,77.72
2023-05-16T06:00:49.144Z,77.30
2023-05-16T06:03:54.372Z,77.71
2023-05-16T06:06:59.240Z,77.98
2023-05-16T06:10:05.285Z,77.93
2023-05-16T06:13:12.917Z,78.30
2023-05-16T06:16:15.183Z,78.28
2023-05-16T06:19:22.394Z,77.51
2023-05-16T06:22:27.049Z,78.94
2023-05-16T06:25:30.564Z,79.13
2023-05-16T06:28:35.432Z,79.86
2023-05-16T06:31:40.450Z,79.92
2023-05-16T06:34:45.004Z,79.20
2023-05-16T06:37:47.417Z,79.39
2023-05-16T06:40:52.633Z,79.45
2023-05-16T06:43:57.069Z,80.02
2023-05-16T06:47:01.729Z,80.22
2023-05-16T06:50:07.450Z,79.39
2023-05-16T06:53:12.125Z,79.78
2023-05-16T06:56:15.555Z,79.73
2023-05-16T06:59:22.573Z,80.00
2023-05-16T07:02:30.266Z,80.01
2023-05-16T07:05:32.962Z,80.69
2023-05-16T07:08:37.069Z,80.70
2023-05-16T07:11:41.592Z,80.83
2023-05-16T07:14:46.844Z,80.59
2023-05-16T07:17:54.309Z,80.93
2023-05-16T07:20:56.707Z,81.34
2023-05-16T07:24:01.322Z,82.32
2023-05-16T07:27:06.393Z,82.39
2023-05-16T07:30:13.114Z,82.87
2023-05-16T07:33:15.768Z,83.34
2023-05-16T07:36:21.301Z,84.14
2023-05-16T07:39:26.055Z,83.86
2023-05-16T07:42:28.744Z,84.94
2023-05-16T07:45:35.989Z,84.57
2023-05-16T07:48:38.292Z,84.64
2023-05-16T07:51:40.714Z,85.80
2023-05-16T07:54:43.173Z,85.48
2023-05-16T07:57:45.505Z,86.06
2023-05-16T08:00:47.993Z,85.92
2023-05-16T08:03:53.741Z,86.79
2023-05-16T08:06:57.074Z,86.42
2023-05-16T08:10:01.468Z,87.15
2023-05-16T08:13:04.412Z,87.16
2023-05-16T08:16:07.097Z,87.11
2023-05-16T08:19:09.548Z,87.48
2023-05-16T08:22:14.371Z,88.05
2023-05-16T08:25:16.825Z,87.55
2023-05-16T08:28:19.339Z,87.79
2023-05-16T08:31:26.669Z,88.35
2023-05-16T08:34:34.223Z,88.04
2023-05-16T08:37:36.917Z,87.62
2023-05-16T08:40:40.580Z,87.99
2023-05-16T08:43:45.467Z,88.23
2023-05-16T08:46:55.394Z,88.50
2023-05-16T08:50:02.781Z,87.99
2023-05-16T08:53:08.325Z,87.46
2023-05-16T08:56:14.760Z,87.50
2023-05-16T08:59:18.444Z,86.78
2023-05-16T09:02:24.085Z,86.82
2023-05-16T09:05:32.746Z,87.13
2023-05-16T09:08:37.907Z,86.75
2023-05-16T09:11:42.556Z,86.24
2023-05-16T09:14:47.608Z,87.05
2023-05-16T09:17:53.473Z,86.71
2023-05-16T09:20:59.135Z,86.72
2023-05-16T09:24:06.281Z,86.11
2023-05-16T09:27:12.093Z,86.21
2023-05-16T09:30:22.614Z,86.83
2023-05-16T09:33:28.452Z,85.98
2023-05-16T09:36:35.021Z,85.94
2023-05-16T09:39:47.661Z,86.37
2023-05-16T09:43:04.979Z,86.16
2023-05-16T09:46:07.569Z,86.44
2023-05-16T09:49:17.290Z,85.48
2023-05-16T09:52:26.632Z,85.82
2023-05-16T09:55:29.165Z,85.94
2023-05-16T09:58:33.782Z,84.84
2023-05-16T10:01:38.331Z,85.01
2023-05-16T10:04:42.840Z,85.14
2023-05-16T10:07:48.610Z,85.87
2023-05-16T10:10:57.556Z,85.31
2023-05-16T10:13:59.991Z,86.22
2023-05-16T10:17:04.787Z,87.92
2023-05-16T10:20:12.782Z,87.68
2023-05-16T10:23:21.369Z,86.91
2023-05-16T10:26:26.188Z,85.98
2023-05-16T10:29:37.446Z,86.88
2023-05-16T10:32:46.724Z,87.07
2023-05-16T10:35:49.933Z,87.20
2023-05-16T10:38:53.215Z,87.58
2023-05-16T10:41:56.521Z,87.43
2023-05-16T10:45:18.198Z,88.18
2023-05-16T10:48:29.504Z,87.80
2023-05-16T10:51:39.268Z,87.17
2023-05-16T10:54:50.283Z,87.02
2023-05-16T10:57:52.561Z,87.52
2023-05-16T11:01:17.473Z,87.16
2023-05-16T11:04:22.570Z,87.20
2023-05-16T11:07:34.091Z,86.69
2023-05-16T11:10:38.744Z,87.42
2023-05-16T11:13:55.530Z,87.15
2023-05-16T11:17:07.172Z,87.23
2023-05-16T11:20:25.556Z,87.07
2023-05-16T11:23:31.323Z,86.13
2023-05-16T11:26:36.847Z,86.21
2023-05-16T11:29:39.223Z,85.42
2023-05-16T11:32:43.668Z,86.12
2023-05-16T11:36:14.540Z,86.64
2023-05-16T11:39:29.486Z,86.03
2023-05-16T11:42:34.487Z,86.09
2023-05-16T11:45:37.382Z,86.27
2023-05-16T11:48:40.112Z,86.92
2023-05-16T11:51:45.201Z,87.45
2023-05-16T11:54:52.084Z,86.57
2023-05-16T11:58:00.237Z,86.77
2023-05-16T12:01:05.494Z,86.12
2023-05-16T12:04:14.899Z,86.63
2023-05-16T12:07:17.593Z,86.22
2023-05-16T12:10:24.855Z,87.10
2023-05-16T12:13:31.669Z,86.08
2023-05-16T12:16:37.448Z,85.52
2023-05-16T12:19:39.990Z,84.86
2023-05-16T12:22:48.583Z,84.88
2023-05-16T12:25:55.439Z,84.72
2023-05-16T12:29:05.786Z,86.08
2023-05-16T12:32:09.327Z,84.47
2023-05-16T12:35:17.419Z,85.27
2023-05-16T12:38:22.207Z,85.09
2023-05-16T12:41:27.020Z,84.99
2023-05-16T12:44:30.364Z,84.61
2023-05-16T12:47:41.068Z,84.82
2023-05-16T12:50:43.465Z,85.22
2023-05-16T12:54:05.542Z,85.18
2023-05-16T12:57:15.993Z,85.32
2023-05-16T13:00:20.733Z,85.03
2023-05-16T13:03:23.129Z,85.50
2023-05-16T13:06:26.740Z,85.69
2023-05-16T13:09:33.065Z,85.59
2023-05-16T13:12:40.127Z,84.88
2023-05-16T13:15:45.621Z,84.33
2023-05-16T13:18:53.525Z,85.01
2023-05-16T13:21:59.570Z,84.77
2023-05-16T13:25:02.200Z,85.00
2023-05-16T13:28:04.814Z,85.06
2023-05-16T13:31:09.992Z,84.34
2023-05-16T13:34:14.849Z,84.81
2023-05-16T13:37:20.629Z,84.48
2023-05-16T13:40:25.412Z,83.42
2023-05-16T13:43:30.311Z,84.02
2023-05-16T13:46:35.524Z,83.48
2023-05-16T13:49:40.138Z,83.36
2023-05-16T13:52:45.015Z,83.13
2023-05-16T13:55:49.605Z,82.26
2023-05-16T13:59:03.835Z,83.15
2023-05-16T14:02:11.432Z,82.38
2023-05-16T14:05:18.153Z,82.13
2023-05-16T14:08:22.805Z,81.07
2023-05-16T14:11:29.159Z,81.50
2023-05-16T14:14:42.320Z,80.85
2023-05-16T14:17:44.640Z,81.87
2023-05-16T14:20:46.960Z,81.46
2023-05-16T14:23:49.238Z,81.40
2023-05-16T14:26:58.096Z,82.23
2023-05-16T14:30:03.011Z,81.15
2023-05-16T14:33:06.744Z,81.54
2023-05-16T14:36:11.563Z,82.11
2023-05-16T14:39:16.189Z,82.54
2023-05-16T14:42:24.263Z,82.92
2023-05-16T14:45:29.354Z,82.98
2023-05-16T14:48:35.049Z,83.58
2023-05-16T14:51:37.455Z,84.92
2023-05-16T14:54:42.088Z,84.75
2023-05-16T14:57:50.438Z,84.65
2023-05-16T15:00:54.700Z,84.10
2023-05-16T15:03:57.115Z,84.67
2023-05-16T15:07:04.141Z,85.20
2023-05-16T15:10:10.223Z,85.27
2023-05-16T15:13:12.750Z,85.93
2023-05-16T15:16:15.071Z,85.95
2023-05-16T15:19:17.491Z,86.07
2023-05-16T15:22:20.874Z,86.24
2023-05-16T15:25:23.207Z,86.63
2023-05-16T15:28:25.526Z,86.69
2023-05-16T15:31:32.653Z,86.46
2023-05-16T15:34:35.641Z,87.19
2023-05-16T15:37:38.101Z,87.48
2023-05-16T15:40:45.136Z,87.76
2023-05-16T15:43:49.874Z,85.91
2023-05-16T15:46:57.080Z,87.31
2023-05-16T15:50:02.752Z,87.13
2023-05-16T15:53:05.252Z,86.56
2023-05-16T15:56:09.669Z,86.60
2023-05-16T15:59:12.236Z,86.49
2023-05-16T16:02:14.519Z,86.51
2023-05-16T16:05:20.340Z,87.07
2023-05-16T16:08:25.405Z,86.90
2023-05-16T16:11:30.138Z,86.38
2023-05-16T16:14:32.420Z,86.49
2023-05-16T16:17:34.837Z,86.98
2023-05-16T16:20:41.933Z,86.49
2023-05-16T16:23:49.357Z,87.05
2023-05-16T16:26:51.689Z,87.15
2023-05-16T16:29:58.993Z,87.35
2023-05-16T16:33:01.568Z,87.11
2023-05-16T16:36:06.854Z,86.88
2023-05-16T16:39:10.383Z,87.42
2023-05-16T16:42:15.416Z,87.17
2023-05-16T16:45:17.888Z,87.26
2023-05-16T16:48:30.045Z,87.71
2023-05-16T16:51:33.666Z,88.00
2023-05-16T16:54:38.191Z,88.35
2023-05-16T16:57:42.272Z,87.81
2023-05-16T17:00:47.572Z,88.65
2023-05-16T17:03:49.779Z,88.58
2023-05-16T17:06:54.267Z,88.43
2023-05-16T17:10:03.934Z,88.38
2023-05-16T17:13:10.553Z,88.75
2023-05-16T17:16:13.010Z,89.71
2023-05-16T17:19:16.846Z,90.10
2023-05-16T17:22:21.353Z,90.13
2023-05-16T17:25:26.066Z,90.15
2023-05-16T17:28:35.838Z,89.55
2023-05-16T17:31:40.716Z,89.72
2023-05-16T17:34:45.735Z,90.21
2023-05-16T17:37:50.123Z,90.23
2023-05-16T17:40:52.878Z,89.94
2023-05-16T17:43:55.717Z,89.56
2023-05-16T17:46:57.980Z,89.41
2023-05-16T17:50:00.374Z,89.36
2023-05-16T17:53:02.843Z,89.60
2023-05-16T17:56:07.797Z,89.47
2023-05-16T17:59:10.815Z,89.38
2023-05-16T18:02:16.349Z,89.34
2023-05-16T18:05:21.145Z,89.77
2023-05-16T18:08:23.614Z,90.05
2023-05-16T18:11:25.969Z,89.85
2023-05-16T18:14:28.307Z,90.29
2023-05-16T18:17:30.660Z,90.68
2023-05-16T18:20:33.298Z,90.29
2023-05-16T18:23:38.271Z,89.72
2023-05-16T18:26:40.775Z,90.40
2023-05-16T18:29:45.216Z,90.30
2023-05-16T18:32:48.127Z,90.58
2023-05-16T18:35:52.873Z,90.12
2023-05-16T18:38:57.454Z,89.92
2023-05-16T18:41:59.855Z,90.26
2023-05-16T18:45:02.274Z,90.21
2023-05-16T18:48:05.128Z,90.04
2023-05-16T18:51:07.709Z,89.92
2023-05-16T18:54:10.099Z,90.03
2023-05-16T18:57:14.763Z,89.51
2023-05-16T19:00:18.553Z,90.01
2023-05-16T19:03:23.318Z,89.99
2023-05-16T19:06:30.738Z,90.31
2023-05-16T19:09:35.882Z,90.46
2023-05-16T19:12:40.628Z,90.47
2023-05-16T19:15:43.185Z,90.43
2023-05-16T19:18:48.152Z,90.39
2023-05-16T19:21:52.143Z,90.67
2023-05-16T19:24:54.460Z,90.17
2023-05-16T19:27:59.218Z,90.55
2023-05-16T19:31:03.984Z,90.45
2023-05-16T19:34:07.017Z,90.76
2023-05-16T19:37:11.821Z,90.54
2023-05-16T19:40:17.134Z,90.71
2023-05-16T19:43:19.895Z,90.50
2023-05-16T19:46:22.356Z,90.69
2023-05-16T19:49:25.738Z,90.84
2023-05-16T19:52:30.007Z,90.08
2023-05-16T19:55:33.992Z,90.11
2023-05-16T19:58:37.416Z,89.93
2023-05-16T20:01:42.336Z,90.14
2023-05-16T20:04:46.908Z,90.57
2023-05-16T20:07:53.383Z,91.22
2023-05-16T20:10:57.182Z,90.70
2023-05-16T20:14:01.694Z,90.77
2023-05-16T20:17:05.687Z,90.72
2023-05-16T20:20:09.791Z,91.00
2023-05-16T20:23:14.413Z,90.94
2023-05-16T20:26:19.041Z,90.69
2023-05-16T20:29:21.390Z,90.51
2023-05-16T20:32:32.201Z,90.48
2023-05-16T20:35:36.929Z,90.40
2023-05-16T20:38:41.723Z,90.01
2023-05-16T20:41:44.628Z,90.35
2023-05-16T20:44:46.887Z,90.23
2023-05-16T20:47:53.801Z,90.15
2023-05-16T20:50:56.708Z,90.44
2023-05-16T20:54:01.491Z,90.44
2023-05-16T20:57:04.118Z,90.15
2023-05-16T21:00:07.170Z,89.94
2023-05-16T21:03:14.905Z,90.11
2023-05-16T21:06:22.010Z,90.52
2023-05-16T21:09:28.885Z,90.49
2023-05-16T21:12:33.775Z,89.71
2023-05-16T21:15:38.338Z,90.00
2023-05-16T21:18:41.125Z,90.57
2023-05-16T21:21:45.780Z,90.48
2023-05-16T21:24:50.635Z,90.12
2023-05-16T21:27:56.298Z,89.97
2023-05-16T21:30:58.588Z,89.45
2023-05-16T21:34:01.067Z,89.71
2023-05-16T21:37:03.954Z,89.77
2023-05-16T21:40:09.486Z,89.48
2023-05-16T21:43:14.509Z,89.49
2023-05-16T21:46:16.922Z,89.63
2023-05-16T21:49:19.197Z,89.78
2023-05-16T21:52:21.494Z,89.63
2023-05-16T21:55:26.433Z,90.65
2023-05-16T21:58:34.244Z,90.08
2023-05-16T22:01:36.681Z,89.90
2023-05-16T22:04:39.000Z,89.82
2023-05-16T22:07:43.780Z,89.87
2023-05-16T22:10:46.063Z,89.75
2023-05-16T22:13:49.598Z,89.50
2023-05-16T22:16:57.144Z,89.54
2023-05-16T22:20:07.456Z,89.92
2023-05-16T22:23:12.184Z,89.56
2023-05-16T22:26:14.473Z,90.40
2023-05-16T22:29:16.709Z,89.86
2023-05-16T22:32:24.549Z,90.39
2023-05-16T22:35:31.487Z,90.54
2023-05-16T22:38:34.565Z,90.70
2023-05-16T22:41:36.865Z,90.31
2023-05-16T22:44:41.901Z,90.19
2023-05-16T22:47:46.740Z,90.35
2023-05-16T22:50:51.566Z,90.57
2023-05-16T22:54:01.487Z,90.48
2023-05-16T22:57:03.924Z,90.34
2023-05-16T23:00:07.709Z,90.05
2023-05-16T23:03:12.669Z,90.17
2023-05-16T23:06:17.634Z,89.86
2023-05-16T23:09:19.957Z,89.69
2023-05-16T23:12:22.305Z,89.78
2023-05-16T23:15:27.644Z,89.46
2023-05-16T23:18:32.682Z,89.66
2023-05-16T23:21:40.021Z,89.54
2023-05-16T23:24:42.373Z,90.12
2023-05-16T23:27:47.121Z,90.27
2023-05-16T23:30:51.961Z,90.27
2023-05-16T23:33:56.805Z,89.95
2023-05-16T23:36:59.104Z,89.99
2023-05-16T23:40:01.375Z,90.58
2023-05-16T23:43:03.671Z,90.68
2023-05-16T23:46:08.421Z,90.54
2023-05-16T23:49:11.327Z,90.64
2023-05-16T23:52:15.958Z,90.83
2023-05-16T23:55:21.488Z,89.85
2023-05-16T23:58:23.900Z,89.92
